createdAt,value
2023-03-17T00:00:26.724Z,12.97
2023-03-17T00:02:54.519Z,13.10
2023-03-17T00:05:30.327Z,13.22
2023-03-17T00:08:04.307Z,13.21
2023-03-17T00:10:32.298Z,13.22
2023-03-17T00:13:00.109Z,12.98
2023-03-17T00:15:27.983Z,12.97
2023-03-17T00:17:56.863Z,12.88
2023-03-17T00:20:31.279Z,12.81
2023-03-17T00:23:04.246Z,12.59
2023-03-17T00:25:34.760Z,12.53
2023-03-17T00:28:03.634Z,12.74
2023-03-17T00:30:31.480Z,12.64
2023-03-17T00:32:59.298Z,12.65
2023-03-17T00:35:29.854Z,12.71
2023-03-17T00:37:58.144Z,12.61
2023-03-17T00:40:31.948Z,12.66
2023-03-17T00:43:03.378Z,12.60
2023-03-17T00:45:31.134Z,12.82
2023-03-17T00:47:59.227Z,12.80
2023-03-17T00:50:28.833Z,12.80
2023-03-17T00:52:58.250Z,12.88
2023-03-17T00:55:26.910Z,12.77
2023-03-17T00:57:54.915Z,12.71
2023-03-17T01:00:25.617Z,12.62
2023-03-17T01:02:55.061Z,12.62
2023-03-17T01:05:25.105Z,12.61
2023-03-17T01:07:57.560Z,12.52
2023-03-17T01:10:29.408Z,12.60
2023-03-17T01:12:58.930Z,12.61
2023-03-17T01:15:31.652Z,12.58
2023-03-17T01:18:01.816Z,12.48
2023-03-17T01:20:32.963Z,12.34
2023-03-17T01:23:02.485Z,12.31
2023-03-17T01:25:31.008Z,12.27
2023-03-17T01:27:59.593Z,12.33
2023-03-17T01:30:38.722Z,12.25
2023-03-17T01:33:08.662Z,12.29
2023-03-17T01:35:38.420Z,12.24
2023-03-17T01:38:06.867Z,12.15
2023-03-17T01:40:43.170Z,12.16
2023-03-17T01:43:10.662Z,12.20
2023-03-17T01:45:57.636Z,12.20
2023-03-17T01:48:27.551Z,12.24
2023-03-17T01:50:56.829Z,12.26
2023-03-17T01:53:26.980Z,12.42
2023-03-17T01:55:57.477Z,12.29
2023-03-17T01:58:26.269Z,12.27
2023-03-17T02:00:54.460Z,12.39
2023-03-17T02:03:23.101Z,12.36
2023-03-17T02:05:52.726Z,12.35
2023-03-17T02:08:21.188Z,12.42
2023-03-17T02:10:50.716Z,12.44
2023-03-17T02:13:18.530Z,12.63
2023-03-17T02:15:48.572Z,12.59
2023-03-17T02:18:18.555Z,12.58
2023-03-17T02:20:46.678Z,12.38
2023-03-17T02:23:19.451Z,12.34
2023-03-17T02:25:47.613Z,12.43
2023-03-17T02:28:21.509Z,12.55
2023-03-17T02:30:49.751Z,12.57
2023-03-17T02:33:19.184Z,12.45
2023-03-17T02:35:47.986Z,12.49
2023-03-17T02:38:17.571Z,12.35
2023-03-17T02:40:45.097Z,12.34
2023-03-17T02:43:12.501Z,12.33
2023-03-17T02:45:40.062Z,12.29
2023-03-17T02:48:08.417Z,12.18
2023-03-17T02:50:36.174Z,12.17
2023-03-17T02:53:10.082Z,12.15
2023-03-17T02:55:57.041Z,11.98
2023-03-17T02:58:38.005Z,11.88
2023-03-17T03:01:25.023Z,11.91
2023-03-17T03:04:05.101Z,11.81
2023-03-17T03:06:52.898Z,11.95
2023-03-17T03:09:34.115Z,11.91
2023-03-17T03:12:20.864Z,11.94
2023-03-17T03:15:00.984Z,12.13
2023-03-17T03:17:48.907Z,11.91
2023-03-17T03:20:30.195Z,11.81
2023-03-17T03:23:17.876Z,11.83
2023-03-17T03:25:59.075Z,11.96
2023-03-17T03:28:45.880Z,11.88
2023-03-17T03:31:27.105Z,11.85
2023-03-17T03:34:13.857Z,11.93
2023-03-17T03:36:54.025Z,12.08
2023-03-17T03:39:40.917Z,11.99
2023-03-17T03:42:34.901Z,11.94
2023-03-17T03:45:21.909Z,11.93
2023-03-17T03:48:03.084Z,11.88
2023-03-17T03:50:49.937Z,11.89
2023-03-17T03:53:30.965Z,11.93
2023-03-17T03:56:17.924Z,11.96
2023-03-17T03:58:59.213Z,11.97
2023-03-17T04:01:46.926Z,11.98
2023-03-17T04:04:28.042Z,11.99
2023-03-17T04:07:14.931Z,11.88
2023-03-17T04:09:55.044Z,11.86
2023-03-17T04:12:41.922Z,11.92
2023-03-17T04:15:25.018Z,11.98
2023-03-17T04:18:11.923Z,11.93
2023-03-17T04:20:52.109Z,11.93
2023-03-17T04:23:38.954Z,11.91
2023-03-17T04:26:20.042Z,11.90
2023-03-17T04:29:06.940Z,12.06
2023-03-17T04:31:41.453Z,12.08
2023-03-17T04:34:15.826Z,11.94
2023-03-17T04:36:45.523Z,11.90
2023-03-17T04:39:13.565Z,11.93
2023-03-17T04:41:41.246Z,11.99
2023-03-17T04:44:08.925Z,12.00
2023-03-17T04:46:36.753Z,11.99
2023-03-17T04:49:04.779Z,11.90
2023-03-17T04:51:32.284Z,11.82
2023-03-17T04:54:00.831Z,11.70
2023-03-17T04:56:30.530Z,11.61
2023-03-17T04:58:59.306Z,11.60
2023-03-17T05:01:27.236Z,11.66
2023-03-17T05:03:54.723Z,11.73
2023-03-17T05:06:22.267Z,11.80
2023-03-17T05:08:49.790Z,11.80
2023-03-17T05:11:17.522Z,11.79
2023-03-17T05:13:45.401Z,11.81
2023-03-17T05:16:12.845Z,11.80
2023-03-17T05:18:40.399Z,11.81
2023-03-17T05:21:08.303Z,11.80
2023-03-17T05:23:36.465Z,11.92
2023-03-17T05:26:04.127Z,11.90
2023-03-17T05:28:32.570Z,11.90
2023-03-17T05:31:00.148Z,11.97
2023-03-17T05:33:27.872Z,11.93
2023-03-17T05:35:55.622Z,11.89
2023-03-17T05:38:23.437Z,11.88
2023-03-17T05:40:51.492Z,11.89
2023-03-17T05:43:19.594Z,11.89
2023-03-17T05:45:50.593Z,11.90
2023-03-17T05:48:18.223Z,11.89
2023-03-17T05:50:46.063Z,11.92
2023-03-17T05:53:13.765Z,11.95
2023-03-17T05:55:41.554Z,11.99
2023-03-17T05:58:09.697Z,12.01
2023-03-17T06:00:37.841Z,12.03
2023-03-17T06:03:05.681Z,11.97
2023-03-17T06:05:33.288Z,11.88
2023-03-17T06:08:00.927Z,11.92
2023-03-17T06:10:29.245Z,11.89
2023-03-17T06:12:57.193Z,11.84
2023-03-17T06:15:25.526Z,11.83
2023-03-17T06:17:53.101Z,11.83
2023-03-17T06:20:21.081Z,11.82
2023-03-17T06:23:03.437Z,11.80
2023-03-17T06:25:33.494Z,11.87
2023-03-17T06:28:03.876Z,11.88
2023-03-17T06:30:35.671Z,11.86
2023-03-17T06:33:04.217Z,11.86
2023-03-17T06:35:33.467Z,11.89
2023-03-17T06:38:01.358Z,11.94
2023-03-17T06:40:29.081Z,12.09
2023-03-17T06:42:56.761Z,12.23
2023-03-17T06:45:24.405Z,12.11
2023-03-17T06:47:51.848Z,12.02
2023-03-17T06:50:19.159Z,11.98
2023-03-17T06:52:47.069Z,12.11
2023-03-17T06:55:15.319Z,12.11
2023-03-17T06:57:43.323Z,12.17
2023-03-17T07:00:14.169Z,12.17
2023-03-17T07:02:42.321Z,12.15
2023-03-17T07:05:10.097Z,12.12
2023-03-17T07:07:37.812Z,12.15
2023-03-17T07:10:06.196Z,12.05
2023-03-17T07:12:34.378Z,12.12
2023-03-17T07:15:02.115Z,12.06
2023-03-17T07:17:30.292Z,12.08
2023-03-17T07:19:57.686Z,12.00
2023-03-17T07:22:25.260Z,11.93
2023-03-17T07:24:53.381Z,11.86
2023-03-17T07:27:23.021Z,11.94
2023-03-17T07:29:50.649Z,11.87
2023-03-17T07:32:18.248Z,11.90
2023-03-17T07:34:45.815Z,12.15
2023-03-17T07:37:13.445Z,12.04
2023-03-17T07:39:41.027Z,12.05
2023-03-17T07:42:12.306Z,12.02
2023-03-17T07:44:41.686Z,12.08
2023-03-17T07:47:11.430Z,12.18
2023-03-17T07:49:42.056Z,12.00
2023-03-17T07:52:11.308Z,11.95
2023-03-17T07:54:41.534Z,11.94
2023-03-17T07:57:11.581Z,11.99
2023-03-17T07:59:40.095Z,12.07
2023-03-17T08:02:08.613Z,11.88
2023-03-17T08:04:36.543Z,11.98
2023-03-17T08:07:06.373Z,11.90
2023-03-17T08:09:34.161Z,11.81
2023-03-17T08:12:01.661Z,11.82
2023-03-17T08:14:29.927Z,11.75
2023-03-17T08:16:57.743Z,11.80
2023-03-17T08:19:25.210Z,11.77
2023-03-17T08:21:52.780Z,11.80
2023-03-17T08:24:20.852Z,11.74
2023-03-17T08:26:49.501Z,11.73
2023-03-17T08:29:17.138Z,11.76
2023-03-17T08:31:46.642Z,11.86
2023-03-17T08:34:14.294Z,11.90
2023-03-17T08:36:42.140Z,11.94
2023-03-17T08:39:10.638Z,11.97
2023-03-17T08:41:38.710Z,11.96
2023-03-17T08:44:08.894Z,12.08
2023-03-17T08:46:37.021Z,12.11
2023-03-17T08:49:04.783Z,12.22
2023-03-17T08:51:34.989Z,12.20
2023-03-17T08:54:03.610Z,12.15
2023-03-17T08:56:31.074Z,12.16
2023-03-17T08:58:58.828Z,12.13
2023-03-17T09:01:28.134Z,12.06
2023-03-17T09:03:57.553Z,11.98
2023-03-17T09:06:26.605Z,12.02
2023-03-17T09:08:57.450Z,12.06
2023-03-17T09:11:27.858Z,12.18
2023-03-17T09:13:55.954Z,12.43
2023-03-17T09:16:24.399Z,12.69
2023-03-17T09:18:52.210Z,13.06
2023-03-17T09:21:20.110Z,13.88
2023-03-17T09:23:47.653Z,14.84
2023-03-17T09:26:15.344Z,15.61
2023-03-17T09:28:42.977Z,16.51
2023-03-17T09:31:11.735Z,17.47
2023-03-17T09:33:40.879Z,18.25
2023-03-17T09:36:10.646Z,18.80
2023-03-17T09:38:39.221Z,19.22
2023-03-17T09:41:16.594Z,19.68
2023-03-17T09:44:01.618Z,20.01
2023-03-17T09:46:48.858Z,20.08
2023-03-17T09:49:25.311Z,20.12
2023-03-17T09:51:53.499Z,20.07
2023-03-17T09:54:38.212Z,19.67
2023-03-17T09:57:26.427Z,18.95
2023-03-17T10:00:06.552Z,18.63
2023-03-17T10:02:40.047Z,18.45
2023-03-17T10:05:30.515Z,18.21
2023-03-17T10:08:34.622Z,17.78
2023-03-17T10:11:24.163Z,17.18
2023-03-17T10:14:04.993Z,17.27
2023-03-17T10:16:32.685Z,17.71
2023-03-17T10:19:14.390Z,17.95
2023-03-17T10:21:51.830Z,17.84
2023-03-17T10:24:22.106Z,18.02
2023-03-17T10:26:50.972Z,18.14
2023-03-17T10:29:24.163Z,17.89
2023-03-17T10:31:54.878Z,18.03
2023-03-17T10:34:31.041Z,18.13
2023-03-17T10:37:05.596Z,18.15
2023-03-17T10:39:44.793Z,18.25
2023-03-17T10:42:35.684Z,18.25
2023-03-17T10:45:19.361Z,18.15
2023-03-17T10:47:50.200Z,18.08
2023-03-17T10:50:31.507Z,17.72
2023-03-17T10:53:04.900Z,17.49
2023-03-17T10:55:38.192Z,17.56
2023-03-17T10:58:14.046Z,17.77
2023-03-17T11:01:02.944Z,17.81
2023-03-17T11:03:36.110Z,18.00
2023-03-17T11:06:12.595Z,18.37
2023-03-17T11:08:55.993Z,18.67
2023-03-17T11:11:28.327Z,18.88
2023-03-17T11:14:19.176Z,18.72
2023-03-17T11:16:54.801Z,18.66
2023-03-17T11:19:32.656Z,18.62
2023-03-17T11:22:30.210Z,18.70
2023-03-17T11:25:23.417Z,18.77
2023-03-17T11:28:00.012Z,18.93
2023-03-17T11:30:55.053Z,18.87
2023-03-17T11:33:52.222Z,18.93
2023-03-17T11:36:38.153Z,18.66
2023-03-17T11:39:23.116Z,18.26
2023-03-17T11:42:02.708Z,17.99
2023-03-17T11:45:01.439Z,17.75
2023-03-17T11:47:43.059Z,17.62
2023-03-17T11:50:16.700Z,17.35
2023-03-17T11:52:47.060Z,17.15
2023-03-17T11:55:25.111Z,17.20
2023-03-17T11:58:10.724Z,17.30
2023-03-17T12:00:46.018Z,17.24
2023-03-17T12:03:23.196Z,17.26
2023-03-17T12:05:56.299Z,17.37
2023-03-17T12:08:29.997Z,17.75
2023-03-17T12:11:01.207Z,18.08
2023-03-17T12:13:43.181Z,18.38
2023-03-17T12:16:19.378Z,18.67
2023-03-17T12:18:49.978Z,18.79
2023-03-17T12:21:45.932Z,18.87
2023-03-17T12:24:34.825Z,18.80
2023-03-17T12:27:25.245Z,18.78
2023-03-17T12:30:00.893Z,18.70
2023-03-17T12:32:39.609Z,18.72
2023-03-17T12:35:24.993Z,18.95
2023-03-17T12:37:54.225Z,18.91
2023-03-17T12:40:35.197Z,18.90
2023-03-17T12:43:27.394Z,18.85
2023-03-17T12:46:04.011Z,18.58
2023-03-17T12:48:49.606Z,18.53
2023-03-17T12:51:38.435Z,18.44
2023-03-17T12:54:36.834Z,18.27
2023-03-17T12:57:44.826Z,18.09
2023-03-17T13:00:28.446Z,18.15
2023-03-17T13:03:23.634Z,18.28
2023-03-17T13:05:55.299Z,18.22
2023-03-17T13:08:31.316Z,18.02
2023-03-17T13:11:54.203Z,18.05
2023-03-17T13:14:40.161Z,18.20
2023-03-17T13:17:28.865Z,18.53
2023-03-17T13:20:04.368Z,18.46
2023-03-17T13:22:41.880Z,18.15
2023-03-17T13:25:20.946Z,17.85
2023-03-17T13:27:50.075Z,17.72
2023-03-17T13:30:25.850Z,17.71
2023-03-17T13:33:02.736Z,17.73
2023-03-17T13:35:42.371Z,17.83
2023-03-17T13:38:35.720Z,17.83
2023-03-17T13:41:37.237Z,17.90
2023-03-17T13:44:26.803Z,17.82
2023-03-17T13:46:54.775Z,17.85
2023-03-17T13:49:30.506Z,17.74
2023-03-17T13:52:23.876Z,17.72
2023-03-17T13:55:01.845Z,17.65
2023-03-17T13:57:36.717Z,17.64
2023-03-17T14:00:22.927Z,17.59
2023-03-17T14:03:02.441Z,17.57
2023-03-17T14:05:34.967Z,17.46
2023-03-17T14:08:16.594Z,17.38
2023-03-17T14:10:54.565Z,17.45
2023-03-17T14:13:35.525Z,17.43
2023-03-17T14:16:26.375Z,17.43
2023-03-17T14:19:13.934Z,17.19
2023-03-17T14:21:41.749Z,17.21
2023-03-17T14:24:36.626Z,17.30
2023-03-17T14:27:08.312Z,17.33
2023-03-17T14:29:37.308Z,17.30
2023-03-17T14:32:14.844Z,17.35
2023-03-17T14:34:44.391Z,17.14
2023-03-17T14:37:12.814Z,17.20
2023-03-17T14:39:49.543Z,16.96
2023-03-17T14:42:20.063Z,16.85
2023-03-17T14:44:47.656Z,16.73
2023-03-17T14:47:23.747Z,16.58
2023-03-17T14:49:53.724Z,16.56
2023-03-17T14:52:27.399Z,16.51
2023-03-17T14:54:58.785Z,16.52
2023-03-17T14:57:30.716Z,16.55
2023-03-17T15:00:15.476Z,16.52
2023-03-17T15:02:54.936Z,16.45
2023-03-17T15:05:39.470Z,16.38
2023-03-17T15:08:34.557Z,16.37
2023-03-17T15:11:04.138Z,16.31
2023-03-17T15:13:36.009Z,16.32
2023-03-17T15:16:15.435Z,16.19
2023-03-17T15:18:43.838Z,16.15
2023-03-17T15:21:41.968Z,15.98
2023-03-17T15:24:41.561Z,15.82
2023-03-17T15:27:17.945Z,15.60
2023-03-17T15:29:46.136Z,15.49
2023-03-17T15:32:15.471Z,15.44
2023-03-17T15:34:43.085Z,15.35
2023-03-17T15:37:23.274Z,15.35
2023-03-17T15:39:53.029Z,15.30
2023-03-17T15:42:25.850Z,15.24
2023-03-17T15:44:53.961Z,15.26
2023-03-17T15:47:25.619Z,15.43
2023-03-17T15:49:57.705Z,15.42
2023-03-17T15:52:27.334Z,15.47
2023-03-17T15:54:57.905Z,15.40
2023-03-17T15:57:26.420Z,15.39
2023-03-17T15:59:53.992Z,15.40
2023-03-17T16:02:35.836Z,15.35
2023-03-17T16:05:15.848Z,15.40
2023-03-17T16:07:47.938Z,15.54
2023-03-17T16:10:35.764Z,15.41
2023-03-17T16:13:03.572Z,15.40
2023-03-17T16:15:33.606Z,15.36
2023-03-17T16:18:04.673Z,15.43
2023-03-17T16:20:38.678Z,15.47
2023-03-17T16:23:14.374Z,15.49
2023-03-17T16:25:42.426Z,15.48
2023-03-17T16:28:21.916Z,15.51
2023-03-17T16:30:50.815Z,15.58
2023-03-17T16:33:20.608Z,15.63
2023-03-17T16:35:50.029Z,15.61
2023-03-17T16:38:34.726Z,15.60
2023-03-17T16:41:09.192Z,15.44
2023-03-17T16:43:38.262Z,15.54
2023-03-17T16:46:07.563Z,15.46
2023-03-17T16:48:35.051Z,15.41
2023-03-17T16:51:04.694Z,15.46
2023-03-17T16:53:32.192Z,15.42
2023-03-17T16:55:59.912Z,15.38
2023-03-17T16:58:31.733Z,15.31
2023-03-17T17:01:02.245Z,15.24
2023-03-17T17:03:31.477Z,15.21
2023-03-17T17:05:59.259Z,15.06
2023-03-17T17:08:26.767Z,14.96
2023-03-17T17:10:54.428Z,14.77
2023-03-17T17:13:21.903Z,14.79
2023-03-17T17:15:49.823Z,14.69
2023-03-17T17:18:21.914Z,14.61
2023-03-17T17:20:49.534Z,14.62
2023-03-17T17:23:20.055Z,14.58
2023-03-17T17:25:48.475Z,14.61
2023-03-17T17:28:17.888Z,14.51
2023-03-17T17:30:48.166Z,14.54
2023-03-17T17:33:18.409Z,14.58
2023-03-17T17:35:48.392Z,14.49
2023-03-17T17:38:22.820Z,14.56
2023-03-17T17:40:50.910Z,14.58
2023-03-17T17:43:18.394Z,14.37
2023-03-17T17:45:50.712Z,14.35
2023-03-17T17:48:22.526Z,14.31
2023-03-17T17:50:52.060Z,14.21
2023-03-17T17:53:20.018Z,14.17
2023-03-17T17:55:49.137Z,14.08
2023-03-17T17:58:19.417Z,14.07
2023-03-17T18:00:47.201Z,13.96
2023-03-17T18:03:15.048Z,13.95
2023-03-17T18:05:42.582Z,13.88
2023-03-17T18:08:14.167Z,13.75
2023-03-17T18:10:41.883Z,13.73
2023-03-17T18:13:09.649Z,13.67
2023-03-17T18:15:37.244Z,13.72
2023-03-17T18:18:05.856Z,13.78
2023-03-17T18:20:34.020Z,13.79
2023-03-17T18:23:01.893Z,13.73
2023-03-17T18:25:29.889Z,13.72
2023-03-17T18:27:57.633Z,13.67
2023-03-17T18:30:28.803Z,13.71
2023-03-17T18:33:03.128Z,13.70
2023-03-17T18:35:31.047Z,13.66
2023-03-17T18:37:59.058Z,13.82
2023-03-17T18:40:26.892Z,13.80
2023-03-17T18:42:54.933Z,13.83
2023-03-17T18:45:22.611Z,13.67
2023-03-17T18:47:50.114Z,13.77
2023-03-17T18:50:18.426Z,13.74
2023-03-17T18:52:46.197Z,13.73
2023-03-17T18:55:15.288Z,13.84
2023-03-17T18:57:44.804Z,13.75
2023-03-17T19:00:16.440Z,13.85
2023-03-17T19:02:44.761Z,13.86
2023-03-17T19:05:13.003Z,13.90
2023-03-17T19:07:41.155Z,13.84
2023-03-17T19:10:10.171Z,13.81
2023-03-17T19:12:38.376Z,13.77
2023-03-17T19:15:07.732Z,13.72
2023-03-17T19:17:35.991Z,13.62
2023-03-17T19:20:06.250Z,13.63
2023-03-17T19:22:35.067Z,13.61
2023-03-17T19:25:04.371Z,13.57
2023-03-17T19:27:32.374Z,13.58
2023-03-17T19:29:59.821Z,13.55
2023-03-17T19:32:27.537Z,13.50
2023-03-17T19:34:55.108Z,13.38
2023-03-17T19:37:22.876Z,13.38
2023-03-17T19:39:50.295Z,13.29
2023-03-17T19:42:18.106Z,13.29
2023-03-17T19:44:45.695Z,13.22
2023-03-17T19:47:13.166Z,13.19
2023-03-17T19:49:40.983Z,13.16
2023-03-17T19:52:09.811Z,13.08
2023-03-17T19:54:45.898Z,13.04
2023-03-17T19:57:14.160Z,13.03
2023-03-17T19:59:41.616Z,12.74
2023-03-17T20:02:14.001Z,12.72
2023-03-17T20:04:41.625Z,12.69
2023-03-17T20:07:10.358Z,12.69
2023-03-17T20:09:39.312Z,12.74
2023-03-17T20:12:07.270Z,12.69
2023-03-17T20:14:34.965Z,12.71
2023-03-17T20:17:02.375Z,12.58
2023-03-17T20:19:29.958Z,12.68
2023-03-17T20:21:58.676Z,12.76
2023-03-17T20:24:27.226Z,12.62
2023-03-17T20:26:57.370Z,12.52
2023-03-17T20:29:26.041Z,12.66
2023-03-17T20:31:53.946Z,12.65
2023-03-17T20:34:21.943Z,12.53
2023-03-17T20:36:49.507Z,12.68
2023-03-17T20:39:20.044Z,12.58
2023-03-17T20:41:48.648Z,12.51
2023-03-17T20:44:17.490Z,12.41
2023-03-17T20:46:45.746Z,12.48
2023-03-17T20:49:14.232Z,12.58
2023-03-17T20:51:41.804Z,12.67
2023-03-17T20:54:10.919Z,12.56
2023-03-17T20:56:39.756Z,12.53
2023-03-17T20:59:09.704Z,12.54
2023-03-17T21:01:38.876Z,12.46
2023-03-17T21:04:09.214Z,12.49
2023-03-17T21:06:38.589Z,12.45
2023-03-17T21:09:06.111Z,12.39
2023-03-17T21:11:34.007Z,12.44
2023-03-17T21:14:03.495Z,12.51
2023-03-17T21:16:31.171Z,12.39
2023-03-17T21:18:59.073Z,12.48
2023-03-17T21:21:27.390Z,12.48
2023-03-17T21:23:55.912Z,12.48
2023-03-17T21:26:24.767Z,12.47
2023-03-17T21:28:52.636Z,12.47
2023-03-17T21:31:20.250Z,12.50
2023-03-17T21:33:50.853Z,12.36
2023-03-17T21:36:18.551Z,12.40
2023-03-17T21:38:45.992Z,12.18
2023-03-17T21:41:30.751Z,12.29
2023-03-17T21:43:58.465Z,12.29
2023-03-17T21:46:26.187Z,12.20
2023-03-17T21:48:57.108Z,12.31
2023-03-17T21:51:25.428Z,12.31
2023-03-17T21:53:53.954Z,12.24
2023-03-17T21:56:21.896Z,12.18
2023-03-17T21:58:49.862Z,12.16
2023-03-17T22:01:18.918Z,12.13
2023-03-17T22:03:46.600Z,12.09
2023-03-17T22:06:15.547Z,12.02
2023-03-17T22:08:43.066Z,12.06
2023-03-17T22:11:15.626Z,12.22
2023-03-17T22:13:43.782Z,12.23
2023-03-17T22:16:12.755Z,12.08
2023-03-17T22:18:40.679Z,12.13
2023-03-17T22:21:10.194Z,12.11
2023-03-17T22:23:42.420Z,12.17
2023-03-17T22:26:15.590Z,12.11
2023-03-17T22:28:44.855Z,12.14
2023-03-17T22:31:19.232Z,12.19
2023-03-17T22:33:48.482Z,12.18
2023-03-17T22:36:16.557Z,12.08
2023-03-17T22:38:46.012Z,12.06
2023-03-17T22:41:17.558Z,12.01
2023-03-17T22:43:45.632Z,12.08
2023-03-17T22:46:14.957Z,12.03
2023-03-17T22:48:42.623Z,11.99
2023-03-17T22:51:12.833Z,12.09
2023-03-17T22:53:41.035Z,12.00
2023-03-17T22:56:10.062Z,12.01
2023-03-17T22:58:37.776Z,11.98
2023-03-17T23:01:06.630Z,11.95
2023-03-17T23:03:35.225Z,11.94
2023-03-17T23:06:04.331Z,11.99
2023-03-17T23:08:35.428Z,11.92
2023-03-17T23:11:08.477Z,11.96
2023-03-17T23:13:36.260Z,12.03
2023-03-17T23:16:04.788Z,11.90
2023-03-17T23:18:32.591Z,11.94
2023-03-17T23:21:01.749Z,11.95
2023-03-17T23:23:29.791Z,11.88
2023-03-17T23:25:57.800Z,11.95
2023-03-17T23:28:25.956Z,11.96
2023-03-17T23:30:54.547Z,11.87
2023-03-17T23:33:24.107Z,11.94
2023-03-17T23:35:52.669Z,11.94
2023-03-17T23:38:21.480Z,12.03
2023-03-17T23:40:49.955Z,11.97
2023-03-17T23:43:17.468Z,11.85
2023-03-17T23:45:45.534Z,11.80
2023-03-17T23:48:13.228Z,11.81
2023-03-17T23:50:41.654Z,11.76
2023-03-17T23:53:09.928Z,11.70
2023-03-17T23:55:38.711Z,11.71
2023-03-17T23:58:06.747Z,11.62
